Time;durP1;ratioP1;P1;durP2;ratioP2;P2;SDS_P1;SDS_P2;PMS_P1;PMS_P2;Temp;Humidity;BMP_temperature;BMP_pressure;BME280_temperature;BME280_humidity;BME280_pressure;Samples;Min_cycle;Max_cycle;Signal;HPM_P1;HPM_P2
2020/12/03 00:01:13;;;;;;;32.77;19.33;;;1.50;1.00;;;;;;5047190;28;20449;-54
2020/12/03 00:03:48;;;;;;;31.00;19.07;;;1.50;1.00;;;;;;5034099;28;20413;-54
2020/12/03 00:06:26;;;;;;;30.10;18.27;;;1.50;1.00;;;;;;5047630;28;20477;-56
2020/12/03 00:08:59;;;;;;;31.83;19.03;;;1.50;1.00;;;;;;5052883;28;20435;-53
2020/12/03 00:11:29;;;;;;;31.97;19.77;;;1.50;1.00;;;;;;5053821;28;20411;-56
2020/12/03 00:13:55;;;;;;;32.23;18.33;;;1.50;1.00;;;;;;5052184;28;20432;-54
2020/12/03 00:16:21;;;;;;;33.40;18.37;;;1.50;1.00;;;;;;5053739;28;20440;-57
2020/12/03 00:18:47;;;;;;;32.23;21.30;;;1.60;1.00;;;;;;5052564;28;20182;-56
2020/12/03 00:21:13;;;;;;;32.93;18.07;;;1.60;1.00;;;;;;5068012;28;20431;-54
2020/12/03 00:23:40;;;;;;;34.27;19.97;;;1.60;1.00;;;;;;5052952;28;20197;-57
2020/12/03 00:26:07;;;;;;;29.30;17.63;;;1.50;1.00;;;;;;5052431;28;20967;-58
2020/12/03 00:28:36;;;;;;;34.33;19.73;;;1.50;1.00;;;;;;5052315;28;20546;-57
2020/12/03 00:31:03;;;;;;;33.83;18.40;;;1.50;1.00;;;;;;5051234;28;20441;-53
2020/12/03 00:33:29;;;;;;;30.13;18.03;;;1.60;1.00;;;;;;5051744;28;20441;-53
2020/12/03 00:35:55;;;;;;;32.03;18.80;;;1.60;1.00;;;;;;5052382;28;20771;-54
2020/12/03 00:38:21;;;;;;;36.70;19.27;;;1.70;1.00;;;;;;5052775;28;20524;-54
2020/12/03 00:40:48;;;;;;;30.83;18.53;;;1.70;1.00;;;;;;5066492;28;20444;-55
2020/12/03 00:43:15;;;;;;;31.93;18.80;;;1.90;1.00;;;;;;5051993;28;20443;-53
2020/12/03 00:45:46;;;;;;;33.50;19.37;;;1.80;1.00;;;;;;5053244;28;20965;-53
2020/12/03 00:48:13;;;;;;;31.60;17.57;;;1.70;1.00;;;;;;5052740;28;20442;-56
2020/12/03 00:50:39;;;;;;;29.07;17.97;;;1.70;1.00;;;;;;5053461;28;20899;-54
2020/12/03 00:53:04;;;;;;;32.13;19.03;;;1.80;1.00;;;;;;5050007;28;20515;-57
2020/12/03 00:55:30;;;;;;;35.17;19.20;;;1.80;1.00;;;;;;5039361;28;20185;-53
2020/12/03 00:57:55;;;;;;;26.40;17.70;;;1.80;1.00;;;;;;5063905;28;20339;-53
2020/12/03 01:00:22;;;;;;;36.23;19.60;;;1.80;1.00;;;;;;5051494;28;20323;-53
2020/12/03 01:02:48;;;;;;;30.93;17.67;;;1.80;1.00;;;;;;5052605;28;20611;-53
2020/12/03 01:05:15;;;;;;;34.33;19.90;;;1.80;1.00;;;;;;5050196;28;20516;-54
2020/12/03 01:07:41;;;;;;;29.60;17.00;;;1.80;1.00;;;;;;5053181;28;20803;-56
2020/12/03 01:10:12;;;;;;;31.90;19.33;;;1.80;1.00;;;;;;5071149;28;20988;-53
2020/12/03 01:12:38;;;;;;;33.40;19.93;;;1.90;1.00;;;;;;5073895;28;20469;-56
2020/12/03 01:15:05;;;;;;;34.77;19.90;;;1.90;1.00;;;;;;5055495;28;20903;-53
2020/12/03 01:17:30;;;;;;;28.53;18.93;;;1.70;1.00;;;;;;5055132;28;20674;-56
2020/12/03 01:19:56;;;;;;;29.60;17.87;;;1.70;1.00;;;;;;5056027;28;20523;-53
2020/12/03 01:22:22;;;;;;;30.80;18.50;;;1.80;1.00;;;;;;5055303;28;20180;-56
2020/12/03 01:24:47;;;;;;;32.63;19.10;;;1.70;1.00;;;;;;5056391;28;20181;-53
2020/12/03 01:27:13;;;;;;;32.17;18.60;;;1.70;1.00;;;;;;5055885;28;20303;-56
2020/12/03 01:29:40;;;;;;;30.53;17.43;;;1.70;1.00;;;;;;5053251;28;20619;-57
2020/12/03 01:32:06;;;;;;;30.20;18.47;;;1.80;1.00;;;;;;5055046;28;20181;-53
2020/12/03 01:34:32;;;;;;;33.50;18.97;;;1.80;1.00;;;;;;5055827;28;20462;-56
2020/12/03 01:36:58;;;;;;;27.20;17.70;;;1.80;1.00;;;;;;5056137;28;20424;-54
2020/12/03 01:39:24;;;;;;;35.50;20.30;;;1.80;1.00;;;;;;5056141;28;20453;-54
2020/12/03 01:41:50;;;;;;;32.70;19.07;;;1.80;1.00;;;;;;5056283;28;20928;-57
2020/12/03 01:44:16;;;;;;;28.73;17.07;;;1.90;1.00;;;;;;5070933;28;20544;-56
2020/12/03 01:46:43;;;;;;;29.20;17.60;;;2.00;1.00;;;;;;5052099;28;20467;-56
2020/12/03 01:49:17;;;;;;;28.43;18.53;;;1.90;1.00;;;;;;5055071;28;20951;-54
2020/12/03 01:51:48;;;;;;;34.03;19.10;;;1.80;1.00;;;;;;5055902;28;20446;-54
2020/12/03 01:54:16;;;;;;;30.07;18.63;;;1.80;1.00;;;;;;5056147;28;20883;-56
2020/12/03 01:57:03;;;;;;;32.30;18.80;;;1.80;1.00;;;;;;5056026;28;20425;-54
2020/12/03 01:59:39;;;;;;;35.30;20.40;;;1.80;1.00;;;;;;5054944;28;20482;-54
2020/12/03 02:02:06;;;;;;;34.60;20.03;;;1.90;1.00;;;;;;5055493;28;20437;-56
2020/12/03 02:04:32;;;;;;;31.30;19.17;;;1.90;1.00;;;;;;5054892;28;20426;-53
2020/12/03 02:07:05;;;;;;;36.83;20.40;;;1.90;1.00;;;;;;5055739;28;20454;-54
2020/12/03 02:09:31;;;;;;;36.03;21.27;;;1.90;1.00;;;;;;5054591;28;20192;-56
2020/12/03 02:11:57;;;;;;;35.87;21.10;;;1.80;1.00;;;;;;5055827;28;20411;-56
2020/12/03 02:14:23;;;;;;;31.47;19.27;;;1.80;1.00;;;;;;5055423;28;20232;-56
2020/12/03 02:16:49;;;;;;;33.37;19.67;;;1.80;1.00;;;;;;5067407;28;20235;-54
2020/12/03 02:19:23;;;;;;;38.13;21.53;;;1.70;1.00;;;;;;5055115;28;20767;-53
2020/12/03 02:22:01;;;;;;;29.20;19.33;;;1.80;1.00;;;;;;5055219;28;20423;-57
2020/12/03 02:24:29;;;;;;;34.93;20.53;;;1.80;1.00;;;;;;5054539;28;20887;-54
2020/12/03 02:26:55;;;;;;;28.33;19.43;;;1.80;1.00;;;;;;5053246;28;20555;-56
2020/12/03 02:29:22;;;;;;;37.67;20.70;;;1.80;1.00;;;;;;5053958;28;20438;-56
2020/12/03 02:31:48;;;;;;;39.57;20.63;;;1.80;1.00;;;;;;5054542;28;20439;-53
2020/12/03 02:34:15;;;;;;;33.97;23.63;;;1.80;1.00;;;;;;5055015;28;20789;-56
2020/12/03 02:36:41;;;;;;;33.70;20.23;;;1.80;1.00;;;;;;5054256;28;20439;-56
2020/12/03 02:39:08;;;;;;;30.80;19.73;;;1.90;1.00;;;;;;5055162;28;20418;-56
2020/12/03 02:41:33;;;;;;;37.57;23.30;;;1.90;1.00;;;;;;5055129;28;20712;-56
2020/12/03 02:43:59;;;;;;;36.57;22.27;;;1.00;1.00;;;;;;5054382;28;20438;-53
2020/12/03 02:46:25;;;;;;;35.60;20.30;;;1.90;1.00;;;;;;5053865;28;20229;-56
2020/12/03 02:48:51;;;;;;;35.07;20.80;;;1.80;1.00;;;;;;5054727;28;20182;-54
2020/12/03 02:51:17;;;;;;;36.07;20.73;;;1.80;1.00;;;;;;5054895;28;20188;-56
2020/12/03 02:53:42;;;;;;;35.30;21.50;;;1.80;1.00;;;;;;5054883;28;20814;-56
2020/12/03 02:56:12;;;;;;;39.57;23.57;;;1.90;1.00;;;;;;5054796;28;20411;-57
2020/12/03 02:58:38;;;;;;;38.33;22.60;;;1.90;1.00;;;;;;5053353;28;20180;-57
2020/12/03 03:01:04;;;;;;;40.57;22.77;;;1.90;1.00;;;;;;5051570;28;20509;-53
2020/12/03 03:03:30;;;;;;;36.30;21.50;;;1.90;1.00;;;;;;5047810;28;20531;-57
2020/12/03 03:05:56;;;;;;;42.20;22.27;;;1.90;1.00;;;;;;5053301;28;20478;-57
2020/12/03 03:08:23;;;;;;;36.10;22.00;;;1.90;1.00;;;;;;5053890;28;20439;-57
2020/12/03 03:10:48;;;;;;;34.10;20.83;;;1.90;1.00;;;;;;5054683;28;20415;-57
2020/12/03 03:13:14;;;;;;;34.47;20.90;;;1.90;1.00;;;;;;5054655;28;20442;-56
2020/12/03 03:15:40;;;;;;;34.40;20.17;;;1.80;1.00;;;;;;5054241;28;20646;-52
2020/12/03 03:18:05;;;;;;;36.13;23.07;;;1.80;1.00;;;;;;5054255;28;20190;-54
2020/12/03 03:20:31;;;;;;;38.00;21.07;;;1.80;1.00;;;;;;5053997;28;20212;-55
2020/12/03 03:22:57;;;;;;;38.57;21.93;;;1.80;1.00;;;;;;5054018;28;20187;-52
2020/12/03 03:25:22;;;;;;;37.27;21.77;;;1.70;1.00;;;;;;5050820;28;20184;-55
2020/12/03 03:27:48;;;;;;;36.23;21.30;;;1.70;1.00;;;;;;5053214;28;20260;-54
2020/12/03 03:30:13;;;;;;;35.30;22.70;;;1.70;1.00;;;;;;5068491;28;20190;-54
2020/12/03 03:32:39;;;;;;;32.60;21.27;;;1.80;1.00;;;;;;5052868;28;20648;-54
2020/12/03 03:35:05;;;;;;;36.50;21.83;;;1.90;1.00;;;;;;5051690;28;20360;-54
2020/12/03 03:37:32;;;;;;;39.13;21.97;;;2.00;1.00;;;;;;5054142;28;20204;-58
2020/12/03 03:40:01;;;;;;;34.77;22.50;;;2.10;1.00;;;;;;5054100;28;20478;-55
2020/12/03 03:42:27;;;;;;;34.67;22.47;;;2.00;1.00;;;;;;5040762;28;20482;-55
2020/12/03 03:44:52;;;;;;;41.80;24.00;;;2.00;1.00;;;;;;5039878;28;20864;-54
2020/12/03 03:47:18;;;;;;;31.17;20.17;;;2.10;1.00;;;;;;5054060;28;20443;-53
2020/12/03 03:49:43;;;;;;;37.83;21.43;;;2.10;1.00;;;;;;5054101;28;20307;-53
2020/12/03 03:52:09;;;;;;;38.10;22.70;;;2.10;1.00;;;;;;5054065;28;20176;-56
2020/12/03 03:54:35;;;;;;;45.10;23.43;;;2.10;1.00;;;;;;5053314;28;20187;-53
2020/12/03 03:57:02;;;;;;;36.77;21.73;;;2.20;1.00;;;;;;5053258;28;20177;-57
2020/12/03 03:59:27;;;;;;;38.63;21.00;;;2.20;1.00;;;;;;5066753;28;20186;-57
2020/12/03 04:01:53;;;;;;;40.83;23.50;;;2.20;1.00;;;;;;5053153;28;20518;-53
2020/12/03 04:04:18;;;;;;;36.83;23.10;;;2.10;1.00;;;;;;5052551;28;20630;-54
2020/12/03 04:06:44;;;;;;;40.20;23.10;;;2.10;1.00;;;;;;5053466;28;20619;-58
2020/12/03 04:09:10;;;;;;;36.57;22.10;;;2.20;1.00;;;;;;5053877;28;20746;-54
2020/12/03 04:11:35;;;;;;;39.30;21.73;;;2.20;1.00;;;;;;5053820;28;20181;-57
2020/12/03 04:14:01;;;;;;;38.30;21.00;;;2.20;1.00;;;;;;5053064;28;20189;-53
2020/12/03 04:16:30;;;;;;;39.30;22.73;;;2.30;1.00;;;;;;5052819;28;20214;-54
2020/12/03 04:18:55;;;;;;;35.37;20.80;;;2.20;1.00;;;;;;5053659;28;20178;-57
2020/12/03 04:21:21;;;;;;;41.43;21.97;;;2.30;1.00;;;;;;5053774;28;20470;-55
2020/12/03 04:23:47;;;;;;;39.33;22.57;;;2.30;1.00;;;;;;5052746;28;20190;-54
2020/12/03 04:26:13;;;;;;;35.60;21.10;;;2.30;1.00;;;;;;5055750;28;20205;-54
2020/12/03 04:28:39;;;;;;;40.57;22.50;;;2.30;1.00;;;;;;5052798;28;20194;-56
2020/12/03 04:31:05;;;;;;;35.73;21.30;;;2.30;1.00;;;;;;5046021;28;20785;-57
2020/12/03 04:33:31;;;;;;;36.80;21.20;;;2.30;1.00;;;;;;5033794;28;20421;-54
2020/12/03 04:35:57;;;;;;;43.23;25.40;;;2.40;1.00;;;;;;5044166;28;20477;-54
2020/12/03 04:38:26;;;;;;;40.33;23.90;;;2.40;1.00;;;;;;5053582;28;20494;-56
2020/12/03 04:40:52;;;;;;;34.30;20.77;;;2.40;1.00;;;;;;5053755;28;20194;-54
2020/12/03 04:43:32;;;;;;;35.53;22.53;;;2.30;1.00;;;;;;5054164;28;20438;-56
2020/12/03 04:46:21;;;;;;;40.83;23.40;;;2.40;1.00;;;;;;5045776;28;20947;-56
2020/12/03 04:49:23;;;;;;;40.03;22.07;;;2.40;1.00;;;;;;5072210;28;20437;-57
2020/12/03 04:52:33;;;;;;;36.23;22.90;;;2.40;1.00;;;;;;5056084;28;20440;-53
2020/12/03 04:55:33;;;;;;;44.43;24.97;;;2.50;1.00;;;;;;5055072;28;20446;-53
2020/12/03 04:58:24;;;;;;;39.10;22.97;;;2.50;1.00;;;;;;5057526;28;20451;-54
2020/12/03 05:01:17;;;;;;;46.70;24.20;;;2.50;1.00;;;;;;5072287;28;20435;-54
2020/12/03 05:04:05;;;;;;;40.63;22.03;;;2.60;1.00;;;;;;5057152;28;20394;-54
2020/12/03 05:06:35;;;;;;;42.77;22.70;;;2.50;1.00;;;;;;5056828;28;20938;-56
2020/12/03 05:09:11;;;;;;;36.50;22.00;;;2.40;1.00;;;;;;5056993;28;20562;-56
2020/12/03 05:11:50;;;;;;;36.90;20.77;;;2.40;1.00;;;;;;5056531;28;20451;-56
2020/12/03 05:14:43;;;;;;;43.00;22.20;;;2.40;1.00;;;;;;5056795;28;20505;-54
2020/12/03 05:17:38;;;;;;;35.60;21.47;;;2.40;1.00;;;;;;5053640;28;20429;-55
2020/12/03 05:20:21;;;;;;;38.43;22.23;;;2.40;1.00;;;;;;5056894;28;20416;-54
2020/12/03 05:22:55;;;;;;;41.90;22.60;;;2.50;1.00;;;;;;5056682;28;20438;-54
2020/12/03 05:25:25;;;;;;;39.50;22.60;;;2.50;1.00;;;;;;5056662;28;20403;-53
2020/12/03 05:27:54;;;;;;;41.03;22.93;;;2.60;1.00;;;;;;5055938;28;20428;-56
2020/12/03 05:30:21;;;;;;;37.60;21.43;;;2.60;1.00;;;;;;5056558;28;20427;-56
2020/12/03 05:32:47;;;;;;;41.20;21.07;;;2.70;1.00;;;;;;5055269;28;20431;-56
2020/12/03 05:35:13;;;;;;;44.13;23.67;;;2.60;1.00;;;;;;5056432;28;20435;-56
2020/12/03 05:37:40;;;;;;;41.60;22.80;;;2.50;1.00;;;;;;5055031;28;20171;-56
2020/12/03 05:40:15;;;;;;;40.10;21.70;;;2.60;1.00;;;;;;5055142;28;20737;-57
2020/12/03 05:42:41;;;;;;;37.30;23.17;;;2.50;1.00;;;;;;5056300;28;20886;-55
2020/12/03 05:45:17;;;;;;;35.10;20.17;;;2.50;1.00;;;;;;5055939;28;20470;-55
2020/12/03 05:47:46;;;;;;;37.00;22.13;;;2.50;1.00;;;;;;5056215;28;20441;-54
2020/12/03 05:50:15;;;;;;;41.53;23.03;;;2.50;1.00;;;;;;5056210;28;20416;-57
2020/12/03 05:52:57;;;;;;;44.90;25.57;;;2.50;1.00;;;;;;5056153;28;20414;-53
2020/12/03 05:55:28;;;;;;;44.20;21.70;;;2.60;1.00;;;;;;5055372;28;20415;-55
2020/12/03 05:57:53;;;;;;;37.40;23.77;;;2.70;1.00;;;;;;5054984;28;20501;-55
2020/12/03 06:00:26;;;;;;;42.67;21.70;;;2.70;1.00;;;;;;5071499;28;20427;-54
2020/12/03 06:03:24;;;;;;;42.57;23.07;;;2.60;1.00;;;;;;5055656;28;20217;-54
2020/12/03 06:06:22;;;;;;;39.03;22.83;;;2.70;1.00;;;;;;5044615;28;20979;-54
2020/12/03 06:09:35;;;;;;;40.67;25.53;;;2.90;1.00;;;;;;5055263;28;20895;-57
2020/12/03 06:12:19;;;;;;;41.97;23.77;;;3.10;1.00;;;;;;5039355;28;20945;-55
2020/12/03 06:15:10;;;;;;;38.33;22.77;;;3.10;1.00;;;;;;5055819;28;20905;-54
2020/12/03 06:17:50;;;;;;;39.30;23.50;;;3.20;1.00;;;;;;5055394;28;20514;-55
2020/12/03 06:20:27;;;;;;;43.37;25.20;;;3.30;1.00;;;;;;5055479;28;20425;-55
2020/12/03 06:23:08;;;;;;;46.63;24.20;;;3.20;1.00;;;;;;5054656;28;20440;-55
2020/12/03 06:26:13;;;;;;;43.67;23.90;;;3.20;1.00;;;;;;5055008;28;20461;-56
2020/12/03 06:29:14;;;;;;;42.63;24.10;;;3.10;1.00;;;;;;5042431;28;20444;-56
2020/12/03 06:32:03;;;;;;;43.70;25.13;;;2.80;1.00;;;;;;5039030;28;20520;-56
2020/12/03 06:34:38;;;;;;;42.63;22.20;;;2.80;1.00;;;;;;5055561;28;20436;-56
2020/12/03 06:37:15;;;;;;;43.43;23.70;;;2.70;1.00;;;;;;5054920;28;20434;-54
2020/12/03 06:39:57;;;;;;;45.67;24.07;;;2.60;1.00;;;;;;5055097;28;20864;-55
2020/12/03 06:42:47;;;;;;;53.37;26.13;;;2.60;1.00;;;;;;5054930;28;20419;-56
2020/12/03 06:45:44;;;;;;;48.17;24.70;;;2.60;1.00;;;;;;5054843;28;20796;-55
2020/12/03 06:48:43;;;;;;;46.87;26.20;;;2.50;1.00;;;;;;5070517;28;20436;-54
2020/12/03 06:51:37;;;;;;;42.90;24.77;;;2.50;1.00;;;;;;5055218;28;20431;-57
2020/12/03 06:54:02;;;;;;;48.97;26.57;;;2.40;1.00;;;;;;5054525;28;20508;-54
2020/12/03 06:56:46;;;;;;;49.93;26.00;;;2.30;1.00;;;;;;5054864;28;20447;-54
2020/12/03 06:59:45;;;;;;;45.80;24.67;;;2.40;1.00;;;;;;5069422;28;20192;-58
2020/12/03 07:02:32;;;;;;;44.80;23.83;;;2.40;1.00;;;;;;5053940;28;20441;-54
2020/12/03 07:05:36;;;;;;;50.77;26.70;;;2.60;1.00;;;;;;5054538;28;20446;-53
2020/12/03 07:08:22;;;;;;;45.70;27.20;;;2.70;1.00;;;;;;5053189;28;20771;-53
2020/12/03 07:11:12;;;;;;;49.60;25.87;;;2.70;1.00;;;;;;5053936;28;20424;-55
2020/12/03 07:14:11;;;;;;;51.63;26.40;;;2.70;1.00;;;;;;5054505;28;20423;-56
2020/12/03 07:16:48;;;;;;;50.50;25.20;;;2.60;1.00;;;;;;5054324;28;20418;-55
2020/12/03 07:19:30;;;;;;;50.00;27.50;;;2.70;1.00;;;;;;5053832;28;20460;-54
2020/12/03 07:22:37;;;;;;;53.00;29.13;;;2.60;1.00;;;;;;5052226;28;20471;-56
2020/12/03 07:25:05;;;;;;;47.87;25.80;;;2.60;1.00;;;;;;5053092;28;20483;-54
2020/12/03 07:28:01;;;;;;;44.63;24.10;;;2.70;1.00;;;;;;5053574;28;20780;-55
2020/12/03 07:30:46;;;;;;;49.43;27.60;;;2.60;1.00;;;;;;5053262;28;20685;-55
2020/12/03 07:33:22;;;;;;;54.63;25.97;;;2.60;1.00;;;;;;5053181;28;20429;-55
2020/12/03 07:36:25;;;;;;;46.43;26.40;;;2.50;1.00;;;;;;5053238;28;20436;-55
2020/12/03 07:38:57;;;;;;;50.83;27.97;;;2.50;1.00;;;;;;5053520;28;20440;-54
2020/12/03 07:41:27;;;;;;;44.50;26.03;;;2.50;1.00;;;;;;5054297;28;20560;-55
2020/12/03 07:44:30;;;;;;;51.83;26.40;;;2.50;1.00;;;;;;5053216;28;20439;-54
2020/12/03 07:47:17;;;;;;;51.07;26.63;;;2.50;1.00;;;;;;5053260;28;20600;-54
2020/12/03 07:49:45;;;;;;;50.00;26.47;;;2.60;1.00;;;;;;5053929;28;20755;-54
2020/12/03 07:52:38;;;;;;;49.70;27.10;;;2.60;1.00;;;;;;5053791;28;20426;-56
2020/12/03 07:55:22;;;;;;;55.23;27.87;;;2.70;1.00;;;;;;5067162;28;20428;-56
2020/12/03 07:57:52;;;;;;;48.30;27.27;;;2.60;1.00;;;;;;5053944;28;20490;-56
2020/12/03 08:00:35;;;;;;;51.70;28.30;;;2.60;1.00;;;;;;5054019;28;20406;-55
2020/12/03 08:03:02;;;;;;;43.30;24.73;;;2.70;1.00;;;;;;5053283;28;20510;-55
2020/12/03 08:05:36;;;;;;;46.53;25.60;;;2.70;1.00;;;;;;5052987;28;20787;-56
2020/12/03 08:08:02;;;;;;;46.90;25.73;;;2.70;1.00;;;;;;5069684;28;20418;-55
2020/12/03 08:10:39;;;;;;;52.13;25.23;;;2.70;1.00;;;;;;5052520;28;20432;-57
2020/12/03 08:13:20;;;;;;;53.10;28.67;;;2.80;1.00;;;;;;5045399;28;20193;-56
2020/12/03 08:16:20;;;;;;;45.17;25.80;;;2.90;1.00;;;;;;5053804;28;20781;-56
2020/12/03 08:19:12;;;;;;;46.07;27.30;;;2.90;1.00;;;;;;5039009;28;20502;-55
2020/12/03 08:21:40;;;;;;;48.80;26.60;;;2.90;1.00;;;;;;5051357;28;20437;-54
2020/12/03 08:24:15;;;;;;;51.93;27.20;;;2.90;1.00;;;;;;5056979;28;20427;-56
2020/12/03 08:26:41;;;;;;;46.60;26.57;;;3.00;1.00;;;;;;5045321;28;20472;-56
2020/12/03 08:29:21;;;;;;;48.53;27.70;;;3.00;1.00;;;;;;5052426;28;20420;-55
2020/12/03 08:31:46;;;;;;;45.77;27.87;;;3.10;1.00;;;;;;5045185;28;20252;-54
2020/12/03 08:34:12;;;;;;;51.27;28.07;;;3.10;1.00;;;;;;5073335;28;20487;-55
2020/12/03 08:36:38;;;;;;;46.87;26.53;;;3.10;1.00;;;;;;5072899;28;20429;-57
2020/12/03 08:39:03;;;;;;;56.07;29.30;;;3.20;1.00;;;;;;5056917;28;20180;-54
2020/12/03 08:41:29;;;;;;;44.13;27.40;;;3.10;1.00;;;;;;5072876;28;20190;-55
2020/12/03 08:44:02;;;;;;;48.73;28.43;;;3.10;1.00;;;;;;5073067;28;20183;-54
2020/12/03 08:46:32;;;;;;;49.60;27.70;;;3.00;1.00;;;;;;5057145;28;20709;-55
2020/12/03 08:48:58;;;;;;;42.07;25.43;;;3.00;1.00;;;;;;5057002;28;20437;-55
2020/12/03 08:51:24;;;;;;;45.00;25.60;;;3.10;1.00;;;;;;5056281;28;20432;-54
2020/12/03 08:53:49;;;;;;;49.37;27.17;;;3.20;1.00;;;;;;5057286;28;20656;-55
2020/12/03 08:56:15;;;;;;;49.20;27.70;;;3.20;1.00;;;;;;5056369;28;20541;-54
2020/12/03 08:59:08;;;;;;;51.63;29.77;;;3.10;1.00;;;;;;5072373;28;20187;-55
2020/12/03 09:01:59;;;;;;;54.43;28.10;;;3.20;1.00;;;;;;5054644;28;20199;-56
2020/12/03 09:04:28;;;;;;;50.00;27.30;;;3.10;1.00;;;;;;5057102;28;20424;-60
2020/12/03 09:06:57;;;;;;;41.57;25.70;;;3.10;1.00;;;;;;5056621;28;20543;-55
2020/12/03 09:09:25;;;;;;;53.93;29.90;;;3.00;1.00;;;;;;5056720;28;20512;-56
2020/12/03 09:11:52;;;;;;;49.97;27.73;;;3.00;1.00;;;;;;5056315;28;20434;-61
2020/12/03 09:14:19;;;;;;;47.20;26.10;;;3.10;1.00;;;;;;5056974;28;20951;-62
2020/12/03 09:16:57;;;;;;;44.60;25.70;;;3.10;1.00;;;;;;5056817;28;20432;-56
2020/12/03 09:19:24;;;;;;;51.30;27.20;;;3.10;1.00;;;;;;5055568;28;20429;-61
2020/12/03 09:21:50;;;;;;;49.17;26.90;;;3.20;1.00;;;;;;5056542;28;20434;-61
2020/12/03 09:24:23;;;;;;;47.93;27.27;;;3.10;1.00;;;;;;5055717;28;20456;-62
2020/12/03 09:26:50;;;;;;;45.80;26.87;;;3.20;1.00;;;;;;5055881;28;20976;-58
2020/12/03 09:29:18;;;;;;;44.53;25.30;;;3.20;1.00;;;;;;5054791;28;20472;-58
2020/12/03 09:31:44;;;;;;;45.83;24.73;;;3.30;1.00;;;;;;5055894;28;20539;-61
2020/12/03 09:34:10;;;;;;;41.47;24.93;;;3.30;1.00;;;;;;5056031;28;20421;-60
2020/12/03 09:36:37;;;;;;;44.37;25.60;;;3.40;1.00;;;;;;5054026;28;20451;-56
2020/12/03 09:39:04;;;;;;;39.40;25.27;;;3.50;1.00;;;;;;5055688;28;20621;-57
2020/12/03 09:41:32;;;;;;;40.27;23.97;;;3.60;1.00;;;;;;5072055;28;20426;-63
2020/12/03 09:44:02;;;;;;;44.97;25.50;;;3.60;1.00;;;;;;5056082;28;20943;-61
2020/12/03 09:46:30;;;;;;;41.50;23.70;;;3.60;1.00;;;;;;5054538;28;20553;-61
2020/12/03 09:48:56;;;;;;;43.23;25.60;;;3.60;1.00;;;;;;5055931;28;20422;-60
2020/12/03 09:51:23;;;;;;;40.43;24.50;;;3.60;1.00;;;;;;5055835;28;20421;-60
2020/12/03 09:53:50;;;;;;;40.47;25.23;;;3.60;1.00;;;;;;5040310;28;20171;-57
2020/12/03 09:56:20;;;;;;;40.53;24.87;;;3.70;1.00;;;;;;5050545;28;20439;-56
2020/12/03 09:58:46;;;;;;;39.17;25.97;;;3.90;1.00;;;;;;5055858;28;20784;-61
2020/12/03 10:01:14;;;;;;;40.20;25.50;;;4.00;1.00;;;;;;5055328;28;20429;-60
2020/12/03 10:04:06;;;;;;;37.37;24.80;;;4.10;1.00;;;;;;5055222;28;20444;-60
2020/12/03 10:06:35;;;;;;;42.60;27.37;;;4.30;1.00;;;;;;5055509;28;20465;-60
2020/12/03 10:09:38;;;;;;;41.20;24.90;;;4.40;1.00;;;;;;5054722;28;20911;-61
2020/12/03 10:12:13;;;;;;;42.60;24.80;;;4.60;1.00;;;;;;5055779;28;20414;-61
2020/12/03 10:15:00;;;;;;;43.17;26.37;;;4.70;1.00;;;;;;5070285;28;20426;-61
2020/12/03 10:17:33;;;;;;;39.97;25.60;;;4.70;1.00;;;;;;5055137;28;20446;-56
2020/12/03 10:20:01;;;;;;;46.67;25.53;;;4.60;1.00;;;;;;5055382;28;20462;-57
2020/12/03 10:22:47;;;;;;;46.37;26.47;;;4.60;1.00;;;;;;5054068;28;20438;-57
2020/12/03 10:25:20;;;;;;;52.00;26.13;;;4.60;1.00;;;;;;5045323;28;20899;-61
2020/12/03 10:28:09;;;;;;;43.20;24.30;;;4.40;1.00;;;;;;5055344;28;20501;-61
2020/12/03 10:30:37;;;;;;;40.27;24.13;;;4.40;1.00;;;;;;5035623;28;20431;-61
2020/12/03 10:33:13;;;;;;;41.63;22.00;;;4.40;1.00;;;;;;5035503;28;20476;-61
2020/12/03 10:35:49;;;;;;;41.53;23.80;;;4.50;1.00;;;;;;5049118;28;20454;-57
2020/12/03 10:38:22;;;;;;;39.60;25.20;;;4.50;1.00;;;;;;5049611;28;20422;-60
2020/12/03 10:40:56;;;;;;;44.57;25.37;;;4.50;1.00;;;;;;5048321;28;20431;-59
2020/12/03 10:43:30;;;;;;;44.60;25.07;;;4.50;1.00;;;;;;5049236;28;20470;-60
2020/12/03 10:46:01;;;;;;;37.73;22.33;;;4.30;1.00;;;;;;5048769;28;21005;-56
2020/12/03 10:48:34;;;;;;;41.63;23.57;;;4.50;1.00;;;;;;5054380;28;20503;-60
2020/12/03 10:51:03;;;;;;;41.90;25.13;;;4.60;1.00;;;;;;5053642;28;20429;-62
2020/12/03 10:53:30;;;;;;;40.30;24.00;;;4.70;1.00;;;;;;5054340;28;20526;-62
2020/12/03 10:55:58;;;;;;;41.00;24.97;;;4.70;1.00;;;;;;5054695;28;20422;-57
2020/12/03 10:58:30;;;;;;;44.63;26.77;;;4.70;1.00;;;;;;5054786;28;20501;-57
2020/12/03 11:01:00;;;;;;;42.13;25.53;;;4.90;1.00;;;;;;5054617;28;20417;-58
2020/12/03 11:03:30;;;;;;;42.30;24.63;;;4.80;1.00;;;;;;5054967;28;20484;-60
2020/12/03 11:05:56;;;;;;;44.20;24.30;;;4.80;1.00;;;;;;5054722;28;20538;-59
2020/12/03 11:08:22;;;;;;;37.77;22.80;;;4.70;1.00;;;;;;5053549;28;20426;-60
2020/12/03 11:10:53;;;;;;;44.00;25.37;;;4.60;1.00;;;;;;5054409;28;20425;-60
2020/12/03 11:13:20;;;;;;;42.00;24.90;;;4.60;1.00;;;;;;5054465;28;20429;-59
2020/12/03 11:15:49;;;;;;;41.03;23.50;;;4.60;1.00;;;;;;5054332;28;20431;-59
2020/12/03 11:18:22;;;;;;;44.60;24.53;;;4.70;1.00;;;;;;5054281;28;20430;-59
2020/12/03 11:21:04;;;;;;;41.53;24.20;;;4.80;1.00;;;;;;5054153;28;20519;-59
2020/12/03 11:23:30;;;;;;;39.90;23.80;;;4.80;1.00;;;;;;5053179;28;20429;-60
2020/12/03 11:26:04;;;;;;;35.20;21.93;;;4.80;1.00;;;;;;5053156;28;20535;-59
2020/12/03 11:28:31;;;;;;;43.50;26.30;;;4.90;1.00;;;;;;5054368;28;20429;-59
2020/12/03 11:31:02;;;;;;;43.53;25.20;;;5.10;1.00;;;;;;5053499;28;20422;-59
2020/12/03 11:33:29;;;;;;;41.90;25.40;;;5.10;1.00;;;;;;5052551;28;20423;-60
2020/12/03 11:36:12;;;;;;;47.27;25.40;;;5.30;1.00;;;;;;5053682;28;20534;-59
2020/12/03 11:38:39;;;;;;;39.30;24.27;;;5.40;1.00;;;;;;5054097;28;20441;-59
2020/12/03 11:41:18;;;;;;;38.90;23.27;;;5.30;1.00;;;;;;5040467;28;20458;-60
2020/12/03 11:44:06;;;;;;;40.40;25.30;;;5.30;1.00;;;;;;5054049;28;20437;-60
2020/12/03 11:49:31;;;;;;;41.20;24.27;;;5.50;1.00;;;;;;5053774;28;20425;-60
2020/12/03 11:52:18;;;;;;;35.50;22.47;;;5.50;1.00;;;;;;5051732;28;20423;-59
2020/12/03 11:54:45;;;;;;;41.87;24.00;;;5.50;1.00;;;;;;5053139;28;20406;-60
2020/12/03 11:57:14;;;;;;;41.30;25.20;;;5.60;1.00;;;;;;5054057;28;20433;-59
2020/12/03 11:59:40;;;;;;;41.70;24.03;;;5.60;1.00;;;;;;5053753;28;20491;-59
2020/12/03 12:02:08;;;;;;;40.53;23.43;;;5.40;1.00;;;;;;5053171;28;20895;-58
2020/12/03 12:07:14;;;;;;;34.77;20.87;;;5.40;1.00;;;;;;5052438;28;20473;-59
2020/12/03 12:12:12;;;;;;;36.93;22.80;;;5.20;1.00;;;;;;5053828;28;20510;-58
2020/12/03 12:14:38;;;;;;;41.57;24.30;;;5.20;1.00;;;;;;5053621;28;20426;-60
2020/12/03 12:17:03;;;;;;;36.97;22.20;;;5.10;1.00;;;;;;5053668;28;20423;-59
2020/12/03 12:19:30;;;;;;;41.90;22.87;;;4.90;1.00;;;;;;5053145;28;20184;-59
2020/12/03 12:21:57;;;;;;;38.90;24.53;;;4.90;1.00;;;;;;5053838;28;20586;-59
2020/12/03 12:24:22;;;;;;;32.60;22.30;;;5.00;1.00;;;;;;5053530;28;20421;-61
2020/12/03 12:26:48;;;;;;;38.93;22.80;;;4.90;1.00;;;;;;5053014;28;20488;-58
2020/12/03 12:29:14;;;;;;;39.47;23.97;;;4.90;1.00;;;;;;5053044;28;20186;-58
2020/12/03 12:31:40;;;;;;;32.90;19.60;;;4.90;1.00;;;;;;5052981;28;20506;-59
2020/12/03 12:34:05;;;;;;;37.33;22.43;;;4.90;1.00;;;;;;5053148;28;20202;-58
2020/12/03 12:36:31;;;;;;;36.87;22.77;;;4.80;1.00;;;;;;5053024;28;20191;-58
2020/12/03 12:38:57;;;;;;;42.37;23.73;;;4.90;1.00;;;;;;5052502;28;20596;-58
2020/12/03 12:41:23;;;;;;;36.30;20.63;;;4.80;1.00;;;;;;5052368;28;20214;-59
2020/12/03 12:43:48;;;;;;;42.57;23.33;;;4.70;1.00;;;;;;5052906;28;20176;-59
2020/12/03 12:46:20;;;;;;;42.47;22.90;;;4.70;1.00;;;;;;5052672;28;20820;-58
2020/12/03 12:48:46;;;;;;;39.70;22.93;;;4.70;1.00;;;;;;5053130;28;20161;-58
2020/12/03 12:51:12;;;;;;;40.90;21.83;;;4.70;1.00;;;;;;5053004;28;20560;-58
2020/12/03 12:53:37;;;;;;;40.07;23.17;;;4.70;1.00;;;;;;5047846;28;20617;-59
2020/12/03 12:56:03;;;;;;;39.03;23.53;;;4.80;1.00;;;;;;5053266;28;20173;-59
2020/12/03 12:58:29;;;;;;;39.23;23.00;;;4.70;1.00;;;;;;5052509;28;20642;-60
2020/12/03 13:00:54;;;;;;;37.83;22.40;;;4.70;1.00;;;;;;5052598;28;20188;-58
2020/12/03 13:03:20;;;;;;;39.03;23.50;;;4.70;1.00;;;;;;5053296;28;20244;-58
2020/12/03 13:05:45;;;;;;;44.17;23.83;;;4.80;1.00;;;;;;5056055;28;20625;-59
2020/12/03 13:08:11;;;;;;;42.90;25.47;;;4.80;1.00;;;;;;5056879;28;20247;-58
2020/12/03 13:10:37;;;;;;;37.40;22.17;;;4.90;1.00;;;;;;5056917;28;20174;-59
2020/12/03 13:13:03;;;;;;;37.20;23.13;;;4.70;1.00;;;;;;5056712;28;20175;-59
2020/12/03 13:15:29;;;;;;;40.50;23.87;;;4.70;1.00;;;;;;5056711;28;20422;-60
2020/12/03 13:17:54;;;;;;;40.83;24.00;;;4.70;1.00;;;;;;5072062;28;20336;-60
2020/12/03 13:20:20;;;;;;;42.20;23.10;;;4.80;1.00;;;;;;5056628;28;20252;-60
2020/12/03 13:22:46;;;;;;;40.50;24.40;;;4.60;1.00;;;;;;5056530;28;20176;-58